Time;durP1;ratioP1;P1;durP2;ratioP2;P2;SDS_P1;SDS_P2;PMS_P1;PMS_P2;Temp;Humidity;BMP_temperature;BMP_pressure;BME280_temperature;BME280_humidity;BME280_pressure;Samples;Min_cycle;Max_cycle;Signal;HPM_P1;HPM_P2
2023/07/28 00:01:25;;;;;;;0.30;0.30;;;17.10;99.90;;;;;;4367490;32;20565;-77
2023/07/28 00:03:51;;;;;;;0.40;0.40;;;17.10;99.90;;;;;;4374821;32;20129;-78
2023/07/28 00:06:16;;;;;;;0.32;0.32;;;17.10;99.90;;;;;;4382312;32;20130;-77
2023/07/28 00:08:42;;;;;;;0.40;0.40;;;17.10;99.90;;;;;;4380428;32;20149;-77
2023/07/28 00:11:12;;;;;;;0.40;0.40;;;17.10;99.90;;;;;;4368326;32;20148;-78
2023/07/28 00:13:38;;;;;;;0.40;0.40;;;17.10;99.90;;;;;;4367937;32;20076;-76
2023/07/28 00:16:04;;;;;;;0.30;0.30;;;17.10;99.90;;;;;;4371268;32;20092;-77
2023/07/28 00:18:29;;;;;;;0.32;0.32;;;17.20;99.90;;;;;;4367344;32;20107;-77
2023/07/28 00:20:55;;;;;;;0.30;0.30;;;17.20;99.90;;;;;;4367638;32;20530;-77
2023/07/28 00:23:20;;;;;;;0.35;0.35;;;17.20;99.90;;;;;;4371202;32;20062;-77
2023/07/28 00:25:46;;;;;;;0.40;0.40;;;17.20;99.90;;;;;;4374253;32;20420;-77
2023/07/28 00:28:11;;;;;;;0.40;0.40;;;17.20;99.90;;;;;;4367877;32;20110;-77
2023/07/28 00:30:37;;;;;;;0.75;0.50;;;17.20;99.90;;;;;;4368240;32;20486;-77
2023/07/28 00:33:02;;;;;;;0.35;0.35;;;17.20;99.90;;;;;;4367684;32;20378;-77
2023/07/28 00:35:28;;;;;;;0.40;0.40;;;17.20;99.90;;;;;;4366887;32;20073;-76
2023/07/28 00:37:53;;;;;;;0.50;0.47;;;17.20;99.90;;;;;;4370766;32;20066;-77
2023/07/28 00:40:19;;;;;;;0.30;0.30;;;17.20;99.90;;;;;;4368176;32;20157;-77
2023/07/28 00:42:45;;;;;;;0.30;0.30;;;17.20;99.90;;;;;;4367841;32;20146;-77
2023/07/28 00:45:10;;;;;;;0.40;0.40;;;17.20;99.90;;;;;;4367567;32;20078;-77
2023/07/28 00:47:36;;;;;;;0.30;0.30;;;17.20;99.90;;;;;;4367602;32;20079;-77
2023/07/28 00:50:03;;;;;;;1.70;0.65;;;17.20;99.90;;;;;;4367588;32;20079;-77
2023/07/28 00:52:29;;;;;;;0.20;0.20;;;17.20;99.90;;;;;;4367695;32;20079;-77
2023/07/28 00:54:54;;;;;;;0.20;0.20;;;17.30;99.90;;;;;;4367397;32;20075;-77
2023/07/28 00:57:20;;;;;;;0.30;0.30;;;17.30;99.90;;;;;;4380400;32;20071;-76
2023/07/28 00:59:46;;;;;;;0.37;0.37;;;17.30;99.90;;;;;;4372642;32;20066;-76
2023/07/28 01:02:12;;;;;;;0.30;0.30;;;17.30;99.90;;;;;;4367805;32;20079;-76
2023/07/28 01:04:38;;;;;;;0.32;0.32;;;17.30;99.90;;;;;;4367393;32;20420;-76
2023/07/28 01:07:10;;;;;;;0.40;0.40;;;17.40;99.90;;;;;;4367593;32;20059;-76
2023/07/28 01:09:45;;;;;;;0.40;0.40;;;17.40;99.90;;;;;;4374134;32;20527;-76
2023/07/28 01:12:10;;;;;;;0.30;0.30;;;17.40;99.90;;;;;;4378105;32;20078;-76
2023/07/28 01:14:36;;;;;;;0.50;0.50;;;17.30;99.90;;;;;;4380177;32;20522;-76
2023/07/28 01:17:01;;;;;;;0.30;0.30;;;17.30;99.90;;;;;;4372250;32;20456;-77
2023/07/28 01:19:27;;;;;;;0.30;0.30;;;17.40;99.90;;;;;;4377212;32;20067;-76
2023/07/28 01:22:13;;;;;;;0.40;0.40;;;17.40;99.90;;;;;;4376875;32;20523;-76
2023/07/28 01:24:50;;;;;;;0.40;0.40;;;17.40;99.90;;;;;;4356868;32;20079;-76
2023/07/28 01:27:16;;;;;;;0.30;0.30;;;17.40;99.90;;;;;;4376907;32;20609;-76
2023/07/28 01:29:42;;;;;;;0.30;0.30;;;17.40;99.90;;;;;;4370513;32;20154;-76
2023/07/28 01:32:11;;;;;;;0.30;0.30;;;17.40;99.90;;;;;;4370157;32;20066;-76
2023/07/28 01:34:36;;;;;;;0.30;0.30;;;17.40;99.90;;;;;;4375888;32;20058;-75
2023/07/28 01:37:02;;;;;;;0.40;0.40;;;17.40;99.90;;;;;;4377475;32;20067;-75
2023/07/28 01:39:28;;;;;;;0.40;0.40;;;17.40;99.90;;;;;;4371778;32;20122;-75
2023/07/28 01:41:53;;;;;;;0.30;0.30;;;17.40;99.90;;;;;;4369574;32;20130;-75
2023/07/28 01:44:18;;;;;;;3.53;0.73;;;17.40;99.90;;;;;;4365082;32;20066;-76
2023/07/28 01:46:44;;;;;;;0.30;0.30;;;17.40;99.90;;;;;;4369959;32;20070;-76
2023/07/28 01:49:09;;;;;;;0.40;0.40;;;17.40;99.90;;;;;;4366896;32;20083;-76
2023/07/28 01:51:35;;;;;;;0.40;0.40;;;17.40;99.90;;;;;;4367601;32;20067;-76
2023/07/28 01:54:00;;;;;;;0.35;0.35;;;17.40;99.90;;;;;;4370193;32;20058;-76
2023/07/28 01:56:26;;;;;;;0.20;0.20;;;17.40;99.90;;;;;;4372692;32;20111;-75
2023/07/28 01:58:52;;;;;;;1.27;0.40;;;17.40;99.90;;;;;;4380182;32;20078;-74
2023/07/28 02:01:18;;;;;;;0.43;0.43;;;17.50;99.90;;;;;;4375567;32;20066;-75
2023/07/28 02:03:43;;;;;;;0.40;0.40;;;17.40;99.90;;;;;;4369588;32;20078;-75
2023/07/28 02:06:09;;;;;;;0.40;0.40;;;17.50;99.90;;;;;;4374181;32;20123;-75
2023/07/28 02:08:34;;;;;;;0.20;0.20;;;17.50;99.90;;;;;;4368521;32;20118;-76
2023/07/28 02:11:00;;;;;;;0.40;0.40;;;17.50;99.90;;;;;;4373062;32;20130;-75
2023/07/28 02:13:25;;;;;;;0.47;0.47;;;17.50;99.90;;;;;;4374149;32;20083;-75
2023/07/28 02:15:51;;;;;;;0.30;0.30;;;17.50;99.90;;;;;;4371809;32;20075;-77
2023/07/28 02:18:16;;;;;;;1.52;0.80;;;17.50;99.90;;;;;;4376972;32;20063;-75
2023/07/28 02:20:42;;;;;;;3.05;1.10;;;17.50;99.90;;;;;;4382157;32;20070;-75
2023/07/28 02:23:07;;;;;;;0.35;0.35;;;17.50;99.90;;;;;;4369867;32;20062;-75
2023/07/28 02:25:33;;;;;;;0.40;0.40;;;17.50;99.90;;;;;;4372457;32;20396;-76
2023/07/28 02:27:58;;;;;;;0.30;0.30;;;17.50;99.90;;;;;;4375576;32;20159;-76
2023/07/28 02:30:23;;;;;;;0.22;0.22;;;17.50;99.90;;;;;;4374492;32;20091;-75
2023/07/28 02:32:49;;;;;;;0.30;0.30;;;17.50;99.90;;;;;;4383018;32;20066;-76
2023/07/28 02:35:15;;;;;;;0.30;0.30;;;17.50;99.90;;;;;;4382708;32;20121;-77
2023/07/28 02:37:41;;;;;;;0.30;0.30;;;17.50;99.90;;;;;;4372472;32;20059;-76
2023/07/28 02:40:07;;;;;;;0.52;0.50;;;17.50;99.90;;;;;;4381817;32;20125;-75
2023/07/28 02:42:35;;;;;;;0.40;0.40;;;17.50;99.90;;;;;;4383953;32;20124;-76
2023/07/28 02:45:00;;;;;;;0.40;0.40;;;17.50;99.90;;;;;;4377756;32;20079;-75
2023/07/28 02:47:26;;;;;;;0.82;0.62;;;17.50;99.90;;;;;;4373419;32;20444;-76
2023/07/28 02:49:51;;;;;;;0.30;0.30;;;17.50;99.90;;;;;;4378038;32;20062;-76
2023/07/28 02:52:17;;;;;;;0.20;0.20;;;17.50;99.90;;;;;;4373635;32;20062;-75
2023/07/28 02:54:42;;;;;;;0.50;0.50;;;17.50;99.90;;;;;;4380158;32;20159;-76
2023/07/28 02:57:08;;;;;;;0.30;0.30;;;17.50;99.90;;;;;;4353607;32;20134;-76
2023/07/28 02:59:33;;;;;;;0.30;0.30;;;17.50;99.90;;;;;;4353901;32;20088;-75
2023/07/28 03:01:59;;;;;;;0.30;0.30;;;17.50;99.90;;;;;;4353495;33;20126;-75
2023/07/28 03:04:25;;;;;;;0.20;0.20;;;17.50;99.90;;;;;;4352728;32;20164;-76
2023/07/28 03:06:50;;;;;;;0.40;0.40;;;17.50;99.90;;;;;;4352499;33;20383;-76
2023/07/28 03:09:16;;;;;;;0.30;0.30;;;17.50;99.90;;;;;;4344860;32;20068;-76
2023/07/28 03:11:43;;;;;;;0.30;0.30;;;17.50;99.90;;;;;;4349275;32;20172;-76
2023/07/28 03:14:08;;;;;;;0.40;0.40;;;17.50;99.90;;;;;;4353913;32;20071;-76
2023/07/28 03:16:34;;;;;;;1.55;0.45;;;17.50;99.90;;;;;;4367533;32;20095;-76
2023/07/28 03:19:00;;;;;;;0.45;0.45;;;17.50;99.90;;;;;;4354075;32;20063;-76
2023/07/28 03:21:25;;;;;;;0.50;0.50;;;17.50;99.90;;;;;;4353563;33;20083;-74
2023/07/28 03:23:51;;;;;;;0.47;0.43;;;17.60;99.90;;;;;;4347961;32;20123;-75
2023/07/28 03:26:16;;;;;;;0.50;0.37;;;17.50;99.90;;;;;;4353577;32;20063;-75
2023/07/28 03:28:42;;;;;;;0.30;0.30;;;17.50;99.90;;;;;;4353119;32;20138;-75
2023/07/28 03:31:07;;;;;;;0.43;0.43;;;17.50;99.90;;;;;;4353126;32;20074;-75
2023/07/28 03:33:33;;;;;;;1.00;0.85;;;17.50;99.90;;;;;;4353006;33;20598;-75
2023/07/28 03:35:58;;;;;;;0.40;0.40;;;17.50;99.90;;;;;;4353355;33;20079;-75
2023/07/28 03:38:24;;;;;;;0.30;0.30;;;17.50;99.90;;;;;;4353246;33;20135;-75
2023/07/28 03:40:50;;;;;;;0.70;0.30;;;17.50;99.90;;;;;;4353611;33;20071;-75
2023/07/28 03:43:16;;;;;;;0.28;0.28;;;17.50;99.90;;;;;;4353338;33;20504;-75
2023/07/28 03:45:41;;;;;;;0.40;0.40;;;17.50;99.90;;;;;;4352897;33;20074;-75
2023/07/28 03:48:07;;;;;;;0.30;0.30;;;17.50;99.90;;;;;;4353418;33;20614;-75
2023/07/28 03:50:32;;;;;;;11.20;1.35;;;17.50;99.90;;;;;;4353670;33;20457;-75
2023/07/28 03:52:58;;;;;;;0.30;0.30;;;17.50;99.90;;;;;;4353473;33;20063;-75
2023/07/28 03:55:23;;;;;;;0.22;0.22;;;17.50;99.90;;;;;;4355343;32;20067;-75
2023/07/28 03:57:49;;;;;;;0.30;0.30;;;17.50;99.90;;;;;;4375027;32;20456;-75
2023/07/28 04:00:14;;;;;;;0.60;0.40;;;17.50;99.90;;;;;;4380149;32;20091;-75
2023/07/28 04:02:40;;;;;;;1.52;0.45;;;17.60;99.90;;;;;;4380076;32;20091;-75
2023/07/28 04:05:05;;;;;;;0.20;0.20;;;17.50;99.90;;;;;;4368951;32;20441;-75
2023/07/28 04:07:31;;;;;;;0.30;0.30;;;17.60;99.90;;;;;;4374240;32;20530;-75
2023/07/28 04:09:56;;;;;;;0.30;0.30;;;17.60;99.90;;;;;;4383508;32;20431;-75
2023/07/28 04:12:22;;;;;;;0.88;0.75;;;17.60;99.90;;;;;;4378295;32;20080;-76
2023/07/28 04:14:47;;;;;;;0.30;0.30;;;17.60;99.90;;;;;;4368522;32;20070;-75
2023/07/28 04:17:13;;;;;;;1.42;1.05;;;17.60;99.90;;;;;;4368152;32;20070;-75
2023/07/28 04:19:38;;;;;;;0.30;0.30;;;17.50;99.90;;;;;;4367807;32;20067;-75
2023/07/28 04:22:04;;;;;;;0.70;0.30;;;17.60;99.90;;;;;;4377016;32;20090;-75
2023/07/28 04:24:29;;;;;;;0.20;0.20;;;17.60;99.90;;;;;;4381194;32;20196;-75
2023/07/28 04:26:55;;;;;;;0.40;0.40;;;17.60;99.90;;;;;;4376092;32;20066;-75
2023/07/28 04:29:20;;;;;;;0.20;0.20;;;17.60;99.90;;;;;;4383071;32;20191;-74
2023/07/28 04:31:46;;;;;;;0.35;0.35;;;17.70;99.90;;;;;;4372741;32;20527;-74
2023/07/28 04:34:11;;;;;;;0.30;0.30;;;17.70;99.90;;;;;;4368128;32;20087;-75
2023/07/28 04:36:37;;;;;;;0.45;0.45;;;17.70;99.90;;;;;;4367629;32;20078;-75
2023/07/28 04:39:03;;;;;;;0.30;0.30;;;17.70;99.90;;;;;;4367639;32;20062;-74
2023/07/28 04:41:28;;;;;;;0.30;0.30;;;17.70;99.90;;;;;;4377364;32;20079;-75
2023/07/28 04:43:54;;;;;;;0.30;0.30;;;17.70;99.90;;;;;;4382763;32;20083;-75
2023/07/28 04:46:19;;;;;;;1.02;0.45;;;17.70;99.90;;;;;;4382897;32;20091;-75
2023/07/28 04:48:46;;;;;;;0.45;0.45;;;17.70;99.90;;;;;;4371484;32;20067;-76
2023/07/28 04:51:12;;;;;;;1.65;0.77;;;17.70;99.90;;;;;;4373647;32;20535;-76
2023/07/28 04:53:38;;;;;;;0.40;0.40;;;17.70;99.90;;;;;;4382839;32;20087;-75
2023/07/28 04:56:03;;;;;;;0.30;0.30;;;17.70;99.90;;;;;;4371496;32;20082;-75
2023/07/28 04:58:29;;;;;;;0.30;0.30;;;17.70;99.90;;;;;;4367804;32;20078;-75
2023/07/28 05:00:55;;;;;;;0.40;0.40;;;17.70;99.90;;;;;;4370547;32;20074;-75
2023/07/28 05:03:20;;;;;;;0.50;0.50;;;17.70;99.90;;;;;;4377812;32;20087;-74
2023/07/28 05:05:46;;;;;;;1.25;0.40;;;17.80;99.90;;;;;;4367743;32;20059;-75
2023/07/28 05:08:11;;;;;;;0.28;0.28;;;17.70;99.90;;;;;;4367574;32;20481;-74
2023/07/28 05:10:37;;;;;;;0.30;0.30;;;17.70;99.90;;;;;;4367245;32;20422;-75
2023/07/28 05:13:04;;;;;;;0.30;0.30;;;17.70;99.90;;;;;;4366789;32;20066;-75
2023/07/28 05:15:30;;;;;;;2.08;0.47;;;17.80;99.90;;;;;;4352558;33;20075;-76
2023/07/28 05:17:55;;;;;;;11.85;1.95;;;17.80;99.90;;;;;;4359597;32;20075;-75
2023/07/28 05:20:22;;;;;;;0.35;0.35;;;17.90;99.90;;;;;;4367391;32;20480;-75
2023/07/28 05:22:47;;;;;;;0.30;0.30;;;17.90;99.90;;;;;;4366861;32;20079;-75
2023/07/28 05:25:13;;;;;;;0.30;0.30;;;17.90;99.90;;;;;;4367049;32;20570;-75
2023/07/28 05:27:40;;;;;;;0.30;0.30;;;17.90;99.90;;;;;;4366957;32;20138;-75
2023/07/28 05:30:06;;;;;;;0.30;0.30;;;17.90;99.90;;;;;;4381217;32;20129;-75
2023/07/28 05:32:32;;;;;;;6.93;1.50;;;17.80;99.90;;;;;;4369519;32;20075;-74
2023/07/28 05:34:57;;;;;;;1.95;0.30;;;17.90;99.90;;;;;;4370085;32;20080;-75
2023/07/28 05:37:23;;;;;;;0.30;0.30;;;17.90;99.90;;;;;;4372278;32;20075;-75
2023/07/28 05:39:49;;;;;;;0.20;0.20;;;17.90;99.90;;;;;;4364836;32;20067;-75
2023/07/28 05:42:14;;;;;;;1.10;0.50;;;17.90;99.90;;;;;;4369799;32;20530;-75
2023/07/28 05:44:40;;;;;;;0.40;0.40;;;17.90;99.90;;;;;;4369756;32;20067;-75
2023/07/28 05:47:06;;;;;;;0.45;0.45;;;17.90;99.90;;;;;;4369458;32;20606;-75
2023/07/28 05:49:31;;;;;;;0.37;0.37;;;17.90;99.90;;;;;;4368966;32;20079;-75
2023/07/28 05:51:57;;;;;;;0.30;0.30;;;18.00;99.90;;;;;;4369769;32;20135;-75
2023/07/28 05:54:23;;;;;;;0.45;0.30;;;18.00;99.90;;;;;;4371311;32;20101;-75
2023/07/28 05:56:48;;;;;;;0.55;0.50;;;18.00;99.90;;;;;;4370662;32;20079;-75
2023/07/28 05:59:14;;;;;;;0.30;0.30;;;18.00;99.90;;;;;;4370196;32;20075;-75
2023/07/28 06:01:39;;;;;;;0.65;0.40;;;18.00;99.90;;;;;;4369438;32;20129;-75
2023/07/28 06:04:05;;;;;;;0.68;0.68;;;18.10;99.90;;;;;;4370150;32;20067;-75
2023/07/28 06:06:30;;;;;;;0.37;0.37;;;18.10;99.90;;;;;;4374965;32;20432;-75
2023/07/28 06:08:56;;;;;;;0.30;0.30;;;18.10;99.90;;;;;;4375620;32;20122;-75
2023/07/28 06:11:21;;;;;;;0.32;0.32;;;18.10;99.90;;;;;;4378095;32;20079;-74
2023/07/28 06:13:47;;;;;;;1.92;0.73;;;18.10;99.90;;;;;;4370279;32;20062;-74
2023/07/28 06:16:14;;;;;;;1.50;0.52;;;18.10;99.90;;;;;;4369416;32;20506;-74
2023/07/28 06:18:39;;;;;;;0.52;0.32;;;18.10;99.90;;;;;;4369679;32;20079;-74
2023/07/28 06:21:05;;;;;;;0.40;0.40;;;18.20;99.90;;;;;;4369464;32;20125;-74
2023/07/28 06:23:30;;;;;;;0.30;0.30;;;18.20;99.90;;;;;;4369378;32;20653;-74
2023/07/28 06:25:56;;;;;;;0.90;0.50;;;18.20;99.90;;;;;;4369108;32;20063;-74
2023/07/28 06:28:21;;;;;;;0.20;0.20;;;18.20;99.90;;;;;;4368697;32;20133;-74
2023/07/28 06:30:47;;;;;;;0.20;0.20;;;18.20;99.90;;;;;;4370897;32;20067;-75
2023/07/28 06:33:12;;;;;;;0.50;0.50;;;18.20;99.90;;;;;;4368067;32;20086;-73
2023/07/28 06:35:38;;;;;;;2.35;0.40;;;18.20;99.90;;;;;;4369029;32;20118;-74
2023/07/28 06:38:04;;;;;;;0.40;0.40;;;18.30;99.90;;;;;;4368505;32;20329;-74
2023/07/28 06:40:30;;;;;;;0.28;0.28;;;18.30;99.90;;;;;;4368792;32;20138;-74
2023/07/28 06:42:56;;;;;;;0.30;0.30;;;18.30;99.90;;;;;;4369068;32;20551;-74
2023/07/28 06:45:21;;;;;;;0.28;0.28;;;18.30;99.90;;;;;;4369987;32;20121;-74
2023/07/28 06:47:47;;;;;;;0.30;0.30;;;18.30;99.90;;;;;;4366821;32;20507;-74
2023/07/28 06:50:13;;;;;;;0.20;0.20;;;18.30;99.90;;;;;;4368595;32;20130;-74
2023/07/28 06:52:39;;;;;;;0.47;0.30;;;18.30;99.90;;;;;;4368822;32;20063;-74
2023/07/28 06:55:05;;;;;;;0.47;0.47;;;18.30;99.90;;;;;;4368966;32;20095;-74
2023/07/28 06:57:31;;;;;;;0.40;0.40;;;18.40;99.90;;;;;;4381660;32;20071;-74
2023/07/28 06:59:56;;;;;;;0.40;0.40;;;18.40;99.90;;;;;;4384354;32;20107;-74
2023/07/28 07:02:22;;;;;;;0.40;0.40;;;18.40;99.90;;;;;;4372777;32;20502;-73
2023/07/28 07:04:48;;;;;;;0.30;0.30;;;18.50;99.90;;;;;;4369919;32;20070;-74
2023/07/28 07:07:13;;;;;;;0.47;0.40;;;18.50;99.90;;;;;;4378552;32;20059;-74
2023/07/28 07:09:40;;;;;;;0.65;0.40;;;18.50;99.90;;;;;;4384045;32;20478;-74
2023/07/28 07:12:07;;;;;;;0.30;0.30;;;18.60;99.90;;;;;;4381738;32;20526;-74
2023/07/28 07:14:33;;;;;;;0.30;0.30;;;18.70;99.90;;;;;;4384299;32;20502;-74
2023/07/28 07:16:59;;;;;;;0.30;0.30;;;18.80;99.90;;;;;;4364337;32;20130;-75
2023/07/28 07:19:24;;;;;;;0.25;0.25;;;18.80;99.90;;;;;;4380202;32;20074;-75
2023/07/28 07:21:50;;;;;;;0.20;0.20;;;18.90;99.90;;;;;;4383914;32;20533;-74
2023/07/28 07:24:16;;;;;;;0.30;0.30;;;18.90;99.90;;;;;;4382366;32;20080;-75
2023/07/28 07:26:42;;;;;;;0.30;0.30;;;18.90;99.90;;;;;;4368483;32;20359;-74
2023/07/28 07:29:09;;;;;;;0.30;0.30;;;18.90;99.90;;;;;;4369574;32;20126;-74
2023/07/28 07:31:34;;;;;;;0.20;0.20;;;19.00;99.90;;;;;;4379037;32;20077;-74
2023/07/28 07:34:00;;;;;;;0.40;0.40;;;19.10;99.90;;;;;;4384527;32;20087;-74
2023/07/28 07:36:26;;;;;;;0.32;0.32;;;19.20;99.90;;;;;;4383791;32;20074;-74
2023/07/28 07:38:51;;;;;;;0.30;0.22;;;19.20;99.90;;;;;;4374385;32;20059;-74
2023/07/28 07:41:19;;;;;;;1.02;0.65;;;19.30;99.90;;;;;;4374859;32;20070;-75
2023/07/28 07:43:46;;;;;;;0.25;0.25;;;19.40;99.90;;;;;;4383549;32;20131;-74
2023/07/28 07:46:12;;;;;;;0.40;0.40;;;19.50;99.90;;;;;;4383658;32;20075;-75
2023/07/28 07:48:38;;;;;;;0.30;0.30;;;19.50;99.90;;;;;;4374789;32;20130;-76
2023/07/28 07:51:03;;;;;;;0.20;0.20;;;19.60;99.90;;;;;;4375120;32;20070;-75
2023/07/28 07:53:29;;;;;;;0.28;0.28;;;19.70;99.90;;;;;;4382722;32;20134;-74
2023/07/28 07:55:54;;;;;;;1.12;0.50;;;19.70;99.90;;;;;;4376603;32;20084;-74
2023/07/28 07:58:20;;;;;;;0.22;0.22;;;19.80;99.90;;;;;;4374987;32;20580;-75
2023/07/28 08:00:45;;;;;;;0.30;0.30;;;19.80;99.90;;;;;;4378630;32;20432;-75
2023/07/28 08:03:11;;;;;;;0.30;0.30;;;19.80;99.90;;;;;;4368551;32;20670;-74
2023/07/28 08:05:37;;;;;;;0.85;0.65;;;19.70;99.90;;;;;;4368206;32;20075;-75
2023/07/28 08:08:03;;;;;;;0.30;0.20;;;19.80;99.90;;;;;;4368322;32;20070;-75
2023/07/28 08:10:28;;;;;;;0.40;0.40;;;19.80;99.90;;;;;;4371874;32;20081;-75
2023/07/28 08:12:55;;;;;;;0.20;0.20;;;19.90;99.90;;;;;;4382318;32;20074;-75
2023/07/28 08:15:20;;;;;;;0.35;0.35;;;20.10;99.90;;;;;;4383323;32;20074;-75
2023/07/28 08:17:46;;;;;;;0.30;0.30;;;20.20;99.90;;;;;;4374420;32;20100;-75
2023/07/28 08:20:12;;;;;;;0.30;0.30;;;20.30;99.90;;;;;;4374497;32;20532;-76
2023/07/28 08:22:37;;;;;;;0.40;0.40;;;20.40;99.90;;;;;;4383433;32;20523;-75
2023/07/28 08:25:04;;;;;;;0.20;0.20;;;20.30;99.90;;;;;;4384363;32;20591;-75
2023/07/28 08:27:29;;;;;;;0.30;0.30;;;20.40;99.90;;;;;;4379101;32;20122;-75
2023/07/28 08:29:55;;;;;;;0.20;0.20;;;20.30;99.90;;;;;;4367918;32;20067;-76
2023/07/28 08:32:21;;;;;;;0.22;0.22;;;20.30;99.90;;;;;;4367527;32;20074;-74
2023/07/28 08:34:47;;;;;;;0.30;0.30;;;20.20;99.90;;;;;;4369722;32;20155;-75
2023/07/28 08:37:13;;;;;;;0.30;0.30;;;20.00;99.90;;;;;;4371908;32;20067;-75
2023/07/28 08:39:38;;;;;;;0.25;0.25;;;19.90;99.90;;;;;;4384523;32;20066;-75
2023/07/28 08:42:04;;;;;;;0.40;0.40;;;19.70;99.90;;;;;;4362062;32;20074;-75
2023/07/28 08:44:32;;;;;;;0.25;0.22;;;19.60;99.90;;;;;;4367808;32;20499;-75
2023/07/28 08:47:00;;;;;;;0.47;0.40;;;19.60;99.90;;;;;;4376103;32;20095;-75
2023/07/28 08:49:26;;;;;;;0.10;0.10;;;19.60;99.90;;;;;;4383923;32;20127;-75
2023/07/28 08:51:57;;;;;;;0.13;0.13;;;19.70;99.90;;;;;;4383243;32;20062;-75
2023/07/28 08:54:22;;;;;;;0.20;0.20;;;19.70;99.90;;;;;;4383823;32;20522;-75
2023/07/28 08:56:48;;;;;;;0.20;0.20;;;19.90;99.90;;;;;;4372875;32;20107;-75
2023/07/28 08:59:21;;;;;;;0.20;0.20;;;20.10;99.90;;;;;;4368080;32;20063;-75
2023/07/28 09:01:50;;;;;;;0.20;0.20;;;20.20;99.90;;;;;;4366822;32;20075;-76
2023/07/28 09:04:15;;;;;;;0.22;0.22;;;20.20;99.90;;;;;;4369763;32;20067;-75
2023/07/28 09:06:45;;;;;;;0.30;0.30;;;20.30;99.90;;;;;;4365154;32;20087;-74
2023/07/28 09:09:11;;;;;;;0.60;0.60;;;20.40;99.90;;;;;;4363261;32;20424;-75
2023/07/28 09:11:45;;;;;;;0.30;0.30;;;20.50;99.90;;;;;;4371537;32;20067;-75
2023/07/28 09:14:12;;;;;;;0.25;0.25;;;20.50;99.90;;;;;;4371990;32;20122;-74
2023/07/28 09:16:38;;;;;;;0.30;0.30;;;20.50;99.90;;;;;;4372045;32;20087;-74
2023/07/28 09:19:06;;;;;;;0.57;0.50;;;20.40;99.90;;;;;;4370841;32;20788;-74
2023/07/28 09:21:32;;;;;;;0.30;0.30;;;20.20;99.90;;;;;;4372028;32;20066;-73
2023/07/28 09:24:01;;;;;;;0.25;0.25;;;20.10;99.90;;;;;;4372332;32;20411;-75
2023/07/28 09:26:44;;;;;;;0.30;0.30;;;20.10;99.90;;;;;;4372507;32;20562;-74
2023/07/28 09:29:19;;;;;;;0.37;0.32;;;20.00;99.90;;;;;;4372916;32;20079;-75
2023/07/28 09:31:45;;;;;;;0.13;0.13;;;20.00;99.90;;;;;;4371911;32;20480;-75
2023/07/28 09:34:13;;;;;;;0.20;0.20;;;19.90;99.90;;;;;;4370288;32;20469;-75
2023/07/28 09:36:38;;;;;;;0.30;0.30;;;20.00;99.90;;;;;;4371792;32;20102;-75
2023/07/28 09:39:08;;;;;;;0.20;0.20;;;20.00;99.90;;;;;;4374478;32;20086;-73
2023/07/28 09:41:37;;;;;;;0.20;0.20;;;20.00;99.90;;;;;;4372111;32;20071;-75
2023/07/28 09:44:05;;;;;;;0.40;0.40;;;20.00;99.90;;;;;;4374828;32;20121;-75
2023/07/28 09:46:35;;;;;;;0.30;0.30;;;19.90;99.90;;;;;;4375241;32;20199;-75
2023/07/28 09:49:03;;;;;;;;;;;20.00;99.90;;;;;;4373307;32;20179;-73
2023/07/28 09:51:31;;;;;;;0.20;0.20;;;20.10;99.90;;;;;;4374068;32;20354;-75
2023/07/28 09:54:04;;;;;;;0.20;0.20;;;20.10;99.90;;;;;;4376781;32;20087;-75
2023/07/28 09:56:30;;;;;;;0.30;0.30;;;20.10;99.90;;;;;;4375245;32;20156;-75
2023/07/28 09:58:57;;;;;;;0.40;0.40;;;20.20;99.90;;;;;;4374987;32;20063;-75
2023/07/28 10:01:23;;;;;;;0.40;0.40;;;20.20;99.90;;;;;;4375753;32;20159;-75
2023/07/28 10:03:50;;;;;;;0.10;0.10;;;20.30;99.90;;;;;;4374900;32;20055;-75
2023/07/28 10:06:17;;;;;;;0.20;0.20;;;20.40;99.90;;;;;;4379967;32;20068;-75
2023/07/28 10:08:43;;;;;;;0.20;0.20;;;20.60;99.90;;;;;;4378115;32;20062;-76
2023/07/28 10:11:10;;;;;;;0.62;0.35;;;20.70;99.90;;;;;;4374194;32;20531;-75
2023/07/28 10:13:42;;;;;;;0.47;0.30;;;20.80;99.90;;;;;;4372916;32;20067;-76
2023/07/28 10:16:09;;;;;;;0.30;0.30;;;21.10;99.90;;;;;;4373254;32;20122;-73
2023/07/28 10:18:34;;;;;;;1.00;0.35;;;21.40;99.90;;;;;;4374128;32;20081;-74
2023/07/28 10:21:13;;;;;;;0.20;0.20;;;21.50;99.90;;;;;;4372310;32;20159;-73
2023/07/28 10:23:39;;;;;;;0.22;0.22;;;21.70;99.90;;;;;;4371508;32;20071;-72
2023/07/28 10:26:05;;;;;;;0.20;0.20;;;21.50;99.90;;;;;;4370380;32;20067;-73
2023/07/28 10:28:38;;;;;;;2.60;0.50;;;21.30;99.90;;;;;;4370891;32;20102;-74
2023/07/28 10:31:06;;;;;;;0.22;0.22;;;21.00;99.90;;;;;;4371793;32;20065;-73
2023/07/28 10:33:34;;;;;;;0.20;0.20;;;21.00;99.90;;;;;;4371395;32;20511;-74
2023/07/28 10:36:11;;;;;;;0.30;0.30;;;20.80;99.90;;;;;;4370998;32;20067;-74
2023/07/28 10:38:37;;;;;;;0.20;0.20;;;20.80;99.90;;;;;;4371761;32;20063;-74
2023/07/28 10:41:14;;;;;;;0.20;0.20;;;20.60;99.90;;;;;;4371673;32;20070;-74
2023/07/28 10:43:40;;;;;;;0.30;0.30;;;20.60;99.90;;;;;;4371579;32;20063;-74
2023/07/28 10:46:08;;;;;;;0.20;0.20;;;20.70;99.90;;;;;;4372441;32;20080;-73
2023/07/28 10:48:37;;;;;;;0.20;0.20;;;21.10;99.90;;;;;;4370370;32;20124;-74
2023/07/28 10:51:02;;;;;;;0.20;0.20;;;21.50;99.90;;;;;;4369921;32;20466;-74
2023/07/28 10:53:28;;;;;;;0.20;0.20;;;22.00;99.90;;;;;;4372890;32;20075;-73
2023/07/28 10:55:53;;;;;;;0.30;0.30;;;22.30;99.90;;;;;;4374695;32;20534;-74
2023/07/28 10:58:20;;;;;;;3.60;0.73;;;22.60;99.90;;;;;;4371235;32;20082;-75
2023/07/28 11:00:45;;;;;;;0.20;0.20;;;22.60;99.90;;;;;;4376938;32;20070;-73
2023/07/28 11:03:12;;;;;;;0.10;0.10;;;22.30;99.90;;;;;;4387045;32;20114;-73
2023/07/28 11:05:38;;;;;;;0.10;0.10;;;22.10;99.90;;;;;;4381600;32;20079;-74
2023/07/28 11:08:07;;;;;;;0.20;0.20;;;22.10;99.90;;;;;;4374062;32;20519;-74
2023/07/28 11:10:32;;;;;;;0.20;0.20;;;22.20;99.90;;;;;;4369820;32;20066;-74
2023/07/28 11:13:00;;;;;;;3.10;0.40;;;22.40;99.90;;;;;;4382043;32;20083;-74
2023/07/28 11:15:26;;;;;;;0.10;0.10;;;22.50;99.90;;;;;;4374527;32;20090;-75
2023/07/28 11:17:52;;;;;;;0.10;0.10;;;22.70;99.90;;;;;;4371146;32;20083;-75
2023/07/28 11:20:21;;;;;;;0.55;0.43;;;22.80;99.90;;;;;;4370070;32;20071;-75
2023/07/28 11:22:54;;;;;;;0.17;0.17;;;23.20;99.90;;;;;;4374522;32;20094;-74
2023/07/28 11:25:20;;;;;;;0.10;0.10;;;23.50;99.90;;;;;;4369019;32;20066;-74
2023/07/28 11:27:47;;;;;;;0.10;0.10;;;23.40;99.90;;;;;;4374788;32;20070;-74
2023/07/28 11:30:14;;;;;;;0.20;0.20;;;23.00;99.90;;;;;;4369101;32;20079;-75
2023/07/28 11:32:41;;;;;;;0.20;0.20;;;22.90;99.90;;;;;;4382082;32;20071;-74
2023/07/28 11:35:09;;;;;;;0.10;0.10;;;22.80;99.90;;;;;;4383421;32;20484;-75
2023/07/28 11:37:37;;;;;;;0.35;0.35;;;22.60;99.90;;;;;;4376897;32;20117;-75
2023/07/28 11:40:06;;;;;;;0.10;0.10;;;22.40;99.90;;;;;;4378118;32;20460;-75
2023/07/28 11:42:34;;;;;;;0.25;0.20;;;22.10;99.90;;;;;;4381537;32;20067;-76
2023/07/28 11:45:01;;;;;;;0.10;0.10;;;22.00;99.90;;;;;;4373374;32;20078;-76
2023/07/28 11:48:22;;;;;;;0.10;0.10;;;22.50;99.90;;;;;;4495244;32;97201;-62
2023/07/28 11:50:48;;;;;;;0.10;0.10;;;23.80;99.90;;;;;;4483028;32;20065;-63
2023/07/28 11:53:14;;;;;;;0.00;0.00;;;24.50;99.90;;;;;;4482733;32;20159;-62
2023/07/28 11:55:40;;;;;;;0.10;0.10;;;25.10;99.90;;;;;;4482658;32;20061;-61
2023/07/28 11:58:06;;;;;;;0.10;0.10;;;25.80;99.90;;;;;;4484264;32;20053;-61
2023/07/28 12:00:34;;;;;;;0.10;0.10;;;25.60;99.90;;;;;;4483350;32;20061;-62
2023/07/28 12:03:09;;;;;;;0.03;0.03;;;24.80;99.90;;;;;;4483099;32;20049;-61
2023/07/28 12:05:35;;;;;;;0.10;0.10;;;24.10;99.90;;;;;;4470420;32;20112;-61
2023/07/28 12:08:02;;;;;;;0.10;0.10;;;23.70;99.90;;;;;;4478121;32;20098;-62
2023/07/28 12:10:28;;;;;;;0.08;0.08;;;23.40;99.90;;;;;;4483453;32;20064;-62
2023/07/28 12:12:54;;;;;;;0.10;0.10;;;23.00;99.90;;;;;;4484431;32;20045;-63
2023/07/28 12:15:23;;;;;;;0.50;0.20;;;22.90;99.90;;;;;;4484267;32;20072;-61
2023/07/28 12:18:08;;;;;;;0.10;0.10;;;22.70;99.90;;;;;;4484425;32;20099;-64
2023/07/28 12:20:39;;;;;;;0.08;0.08;;;22.70;99.90;;;;;;4480045;32;20098;-62
2023/07/28 12:23:06;;;;;;;2.15;0.50;;;22.60;99.90;;;;;;4483766;32;20116;-62
2023/07/28 12:25:32;;;;;;;0.20;0.20;;;22.80;99.90;;;;;;4486042;32;20040;-62
2023/07/28 12:27:58;;;;;;;0.00;0.00;;;23.00;99.90;;;;;;4484459;32;20075;-61
2023/07/28 12:30:24;;;;;;;0.08;0.08;;;23.30;99.90;;;;;;4475708;32;20111;-62
2023/07/28 12:32:49;;;;;;;0.20;0.20;;;23.30;99.90;;;;;;4468021;32;20069;-62
2023/07/28 12:35:15;;;;;;;0.10;0.10;;;23.00;99.90;;;;;;4468688;32;20081;-61
2023/07/28 12:37:41;;;;;;;0.55;0.40;;;22.70;99.90;;;;;;4477493;32;20076;-62
2023/07/28 12:40:08;;;;;;;0.30;0.30;;;22.30;99.90;;;;;;4479824;32;20064;-61
2023/07/28 12:42:33;;;;;;;0.30;0.30;;;21.90;99.90;;;;;;4482493;32;20073;-61
2023/07/28 12:44:59;;;;;;;0.00;0.00;;;21.60;99.90;;;;;;4476950;32;20555;-61